sensor_id;sensor_type;location;lat;lon;timestamp;temperature;humidity
7445;DHT22;3764;48.126;11.594;2023-04-29T00:00:56;10.60;99.90
7445;DHT22;3764;48.126;11.594;2023-04-29T00:03:23;10.70;99.90
7445;DHT22;3764;48.126;11.594;2023-04-29T00:05:54;10.60;99.90
7445;DHT22;3764;48.126;11.594;2023-04-29T00:08:21;10.60;99.90
7445;DHT22;3764;48.126;11.594;2023-04-29T00:10:48;10.70;99.90
7445;DHT22;3764;48.126;11.594;2023-04-29T00:13:16;10.60;99.90
7445;DHT22;3764;48.126;11.594;2023-04-29T00:15:43;10.60;99.90
7445;DHT22;3764;48.126;11.594;2023-04-29T00:18:10;10.60;99.90
7445;DHT22;3764;48.126;11.594;2023-04-29T00:20:38;10.70;99.90
7445;DHT22;3764;48.126;11.594;2023-04-29T00:23:07;10.60;99.90
7445;DHT22;3764;48.126;11.594;2023-04-29T00:25:34;10.70;99.90
7445;DHT22;3764;48.126;11.594;2023-04-29T00:28:03;10.60;99.90
7445;DHT22;3764;48.126;11.594;2023-04-29T00:30:30;10.70;99.90
7445;DHT22;3764;48.126;11.594;2023-04-29T00:32:58;10.70;99.90
7445;DHT22;3764;48.126;11.594;2023-04-29T00:35:25;10.70;99.90
7445;DHT22;3764;48.126;11.594;2023-04-29T00:37:52;10.70;99.90
7445;DHT22;3764;48.126;11.594;2023-04-29T00:40:21;10.70;99.90
7445;DHT22;3764;48.126;11.594;2023-04-29T00:42:48;10.70;99.90
7445;DHT22;3764;48.126;11.594;2023-04-29T00:45:15;10.70;99.90
7445;DHT22;3764;48.126;11.594;2023-04-29T00:47:42;10.70;99.90
7445;DHT22;3764;48.126;11.594;2023-04-29T00:50:09;10.70;99.90
7445;DHT22;3764;48.126;11.594;2023-04-29T00:52:37;10.80;99.90
7445;DHT22;3764;48.126;11.594;2023-04-29T00:55:06;10.80;99.90
7445;DHT22;3764;48.126;11.594;2023-04-29T00:57:34;10.80;99.90
7445;DHT22;3764;48.126;11.594;2023-04-29T01:00:04;10.90;99.90
7445;DHT22;3764;48.126;11.594;2023-04-29T01:02:32;10.90;99.90
7445;DHT22;3764;48.126;11.594;2023-04-29T01:04:59;10.90;99.90
7445;DHT22;3764;48.126;11.594;2023-04-29T01:07:33;10.90;99.90
7445;DHT22;3764;48.126;11.594;2023-04-29T01:10:05;10.90;99.90
7445;DHT22;3764;48.126;11.594;2023-04-29T01:12:44;10.90;99.90
7445;DHT22;3764;48.126;11.594;2023-04-29T01:15:19;10.90;99.90
7445;DHT22;3764;48.126;11.594;2023-04-29T01:17:52;10.90;99.90
7445;DHT22;3764;48.126;11.594;2023-04-29T01:20:21;10.90;99.90
7445;DHT22;3764;48.126;11.594;2023-04-29T01:22:49;10.90;99.90
7445;DHT22;3764;48.126;11.594;2023-04-29T01:25:18;10.90;99.90
7445;DHT22;3764;48.126;11.594;2023-04-29T01:27:49;10.90;99.90
7445;DHT22;3764;48.126;11.594;2023-04-29T01:30:27;10.90;99.90
7445;DHT22;3764;48.126;11.594;2023-04-29T01:33:00;10.90;99.90
7445;DHT22;3764;48.126;11.594;2023-04-29T01:35:44;10.90;99.90
7445;DHT22;3764;48.126;11.594;2023-04-29T01:38:33;10.90;99.90
7445;DHT22;3764;48.126;11.594;2023-04-29T01:41:09;10.90;99.90
7445;DHT22;3764;48.126;11.594;2023-04-29T01:43:38;10.90;99.90
7445;DHT22;3764;48.126;11.594;2023-04-29T01:46:08;10.90;99.90
7445;DHT22;3764;48.126;11.594;2023-04-29T01:48:35;10.90;99.90
7445;DHT22;3764;48.126;11.594;2023-04-29T01:51:02;10.90;99.90
7445;DHT22;3764;48.126;11.594;2023-04-29T01:53:31;10.90;99.90
7445;DHT22;3764;48.126;11.594;2023-04-29T01:55:58;11.00;99.90
7445;DHT22;3764;48.126;11.594;2023-04-29T01:58:27;11.00;99.90
7445;DHT22;3764;48.126;11.594;2023-04-29T02:00:54;11.00;99.90
7445;DHT22;3764;48.126;11.594;2023-04-29T02:03:21;11.00;99.90
7445;DHT22;3764;48.126;11.594;2023-04-29T02:05:48;11.00;99.90
7445;DHT22;3764;48.126;11.594;2023-04-29T02:08:16;11.00;99.90
7445;DHT22;3764;48.126;11.594;2023-04-29T02:10:51;11.00;99.90
7445;DHT22;3764;48.126;11.594;2023-04-29T02:13:19;11.00;99.90
7445;DHT22;3764;48.126;11.594;2023-04-29T02:15:47;11.00;99.90
7445;DHT22;3764;48.126;11.594;2023-04-29T02:18:14;11.00;99.90
7445;DHT22;3764;48.126;11.594;2023-04-29T02:20:42;11.00;99.90
7445;DHT22;3764;48.126;11.594;2023-04-29T02:23:09;11.00;99.90
7445;DHT22;3764;48.126;11.594;2023-04-29T02:25:36;11.10;99.90
7445;DHT22;3764;48.126;11.594;2023-04-29T02:28:03;11.10;99.90
7445;DHT22;3764;48.126;11.594;2023-04-29T02:30:30;11.10;99.90
7445;DHT22;3764;48.126;11.594;2023-04-29T02:32:59;11.10;99.90
7445;DHT22;3764;48.126;11.594;2023-04-29T02:35:26;11.10;99.90
7445;DHT22;3764;48.126;11.594;2023-04-29T02:37:53;11.10;99.90
7445;DHT22;3764;48.126;11.594;2023-04-29T02:40:20;11.10;99.90
7445;DHT22;3764;48.126;11.594;2023-04-29T02:42:47;11.10;99.90
7445;DHT22;3764;48.126;11.594;2023-04-29T02:45:14;11.10;99.90
7445;DHT22;3764;48.126;11.594;2023-04-29T02:47:42;11.10;99.90
7445;DHT22;3764;48.126;11.594;2023-04-29T02:50:10;11.10;99.90
7445;DHT22;3764;48.126;11.594;2023-04-29T02:52:37;11.10;99.90
7445;DHT22;3764;48.126;11.594;2023-04-29T02:55:07;11.10;99.90
7445;DHT22;3764;48.126;11.594;2023-04-29T02:57:34;11.10;99.90
7445;DHT22;3764;48.126;11.594;2023-04-29T03:00:01;11.10;99.90
7445;DHT22;3764;48.126;11.594;2023-04-29T03:02:29;11.20;99.90
7445;DHT22;3764;48.126;11.594;2023-04-29T03:04:56;11.20;99.90
7445;DHT22;3764;48.126;11.594;2023-04-29T03:07:24;11.20;99.90
7445;DHT22;3764;48.126;11.594;2023-04-29T03:09:52;11.20;99.90
7445;DHT22;3764;48.126;11.594;2023-04-29T03:12:20;11.20;99.90
7445;DHT22;3764;48.126;11.594;2023-04-29T03:14:47;11.20;99.90
7445;DHT22;3764;48.126;11.594;2023-04-29T03:17:14;11.20;99.90
7445;DHT22;3764;48.126;11.594;2023-04-29T03:19:41;11.20;99.90
7445;DHT22;3764;48.126;11.594;2023-04-29T03:22:08;11.20;99.90
7445;DHT22;3764;48.126;11.594;2023-04-29T03:24:38;11.20;99.90
7445;DHT22;3764;48.126;11.594;2023-04-29T03:27:05;11.20;99.90
7445;DHT22;3764;48.126;11.594;2023-04-29T03:29:32;11.20;99.90
7445;DHT22;3764;48.126;11.594;2023-04-29T03:31:59;11.20;99.90
7445;DHT22;3764;48.126;11.594;2023-04-29T03:34:27;11.20;99.90
7445;DHT22;3764;48.126;11.594;2023-04-29T03:36:54;11.20;99.90
7445;DHT22;3764;48.126;11.594;2023-04-29T03:39:22;11.20;99.90
7445;DHT22;3764;48.126;11.594;2023-04-29T03:41:50;11.20;99.90
7445;DHT22;3764;48.126;11.594;2023-04-29T03:44:17;11.20;99.90
7445;DHT22;3764;48.126;11.594;2023-04-29T03:46:44;11.30;99.90
7445;DHT22;3764;48.126;11.594;2023-04-29T03:49:11;11.30;99.90
7445;DHT22;3764;48.126;11.594;2023-04-29T03:51:39;11.30;99.90
7445;DHT22;3764;48.126;11.594;2023-04-29T03:54:06;11.30;99.90
7445;DHT22;3764;48.126;11.594;2023-04-29T03:56:34;11.30;99.90
7445;DHT22;3764;48.126;11.594;2023-04-29T03:59:03;11.30;99.90
7445;DHT22;3764;48.126;11.594;2023-04-29T04:01:30;11.30;99.90
7445;DHT22;3764;48.126;11.594;2023-04-29T04:03:58;11.30;99.90
7445;DHT22;3764;48.126;11.594;2023-04-29T04:06:25;11.30;99.90
7445;DHT22;3764;48.126;11.594;2023-04-29T04:08:52;11.30;99.90
7445;DHT22;3764;48.126;11.594;2023-04-29T04:11:19;11.30;99.90
7445;DHT22;3764;48.126;11.594;2023-04-29T04:13:46;11.30;99.90
7445;DHT22;3764;48.126;11.594;2023-04-29T04:16:15;11.30;99.90
7445;DHT22;3764;48.126;11.594;2023-04-29T04:18:42;11.30;99.90
7445;DHT22;3764;48.126;11.594;2023-04-29T04:21:10;11.30;99.90
7445;DHT22;3764;48.126;11.594;2023-04-29T04:23:38;11.30;99.90
7445;DHT22;3764;48.126;11.594;2023-04-29T04:26:05;11.40;99.90
7445;DHT22;3764;48.126;11.594;2023-04-29T04:28:33;11.40;99.90
7445;DHT22;3764;48.126;11.594;2023-04-29T04:31:00;11.40;99.90
7445;DHT22;3764;48.126;11.594;2023-04-29T04:33:28;11.40;99.90
7445;DHT22;3764;48.126;11.594;2023-04-29T04:35:55;11.50;99.90
7445;DHT22;3764;48.126;11.594;2023-04-29T04:38:22;11.40;99.90
7445;DHT22;3764;48.126;11.594;2023-04-29T04:40:51;11.40;99.90
7445;DHT22;3764;48.126;11.594;2023-04-29T04:43:18;11.50;99.90
7445;DHT22;3764;48.126;11.594;2023-04-29T04:45:45;11.40;99.90
7445;DHT22;3764;48.126;11.594;2023-04-29T04:48:12;11.40;99.90
7445;DHT22;3764;48.126;11.594;2023-04-29T04:50:41;11.50;99.90
7445;DHT22;3764;48.126;11.594;2023-04-29T04:53:08;11.50;99.90
7445;DHT22;3764;48.126;11.594;2023-04-29T04:55:35;11.50;99.90
7445;DHT22;3764;48.126;11.594;2023-04-29T04:58:02;11.50;99.90
7445;DHT22;3764;48.126;11.594;2023-04-29T05:00:29;11.60;99.90
7445;DHT22;3764;48.126;11.594;2023-04-29T05:02:56;11.60;99.90
7445;DHT22;3764;48.126;11.594;2023-04-29T05:05:23;11.60;99.90
7445;DHT22;3764;48.126;11.594;2023-04-29T05:07:52;11.60;99.90
7445;DHT22;3764;48.126;11.594;2023-04-29T05:10:19;11.60;99.90
7445;DHT22;3764;48.126;11.594;2023-04-29T05:12:51;11.60;99.90
7445;DHT22;3764;48.126;11.594;2023-04-29T05:15:18;11.70;99.90
7445;DHT22;3764;48.126;11.594;2023-04-29T05:17:45;11.70;99.90
7445;DHT22;3764;48.126;11.594;2023-04-29T05:20:12;11.70;99.90
7445;DHT22;3764;48.126;11.594;2023-04-29T05:22:39;11.70;99.90
7445;DHT22;3764;48.126;11.594;2023-04-29T05:25:08;11.70;99.90
7445;DHT22;3764;48.126;11.594;2023-04-29T05:27:35;11.70;99.90
7445;DHT22;3764;48.126;11.594;2023-04-29T05:30:03;11.80;99.90
7445;DHT22;3764;48.126;11.594;2023-04-29T05:32:30;11.80;99.90
7445;DHT22;3764;48.126;11.594;2023-04-29T05:34:58;11.80;99.90
7445;DHT22;3764;48.126;11.594;2023-04-29T05:37:25;11.80;99.90
7445;DHT22;3764;48.126;11.594;2023-04-29T05:39:55;11.90;99.90
7445;DHT22;3764;48.126;11.594;2023-04-29T05:42:24;11.80;99.90
7445;DHT22;3764;48.126;11.594;2023-04-29T05:44:51;11.90;99.90
7445;DHT22;3764;48.126;11.594;2023-04-29T05:47:19;11.90;99.90
7445;DHT22;3764;48.126;11.594;2023-04-29T05:49:46;11.90;99.90
7445;DHT22;3764;48.126;11.594;2023-04-29T05:52:13;12.00;99.90
7445;DHT22;3764;48.126;11.594;2023-04-29T05:54:40;12.00;99.90
7445;DHT22;3764;48.126;11.594;2023-04-29T05:57:08;12.10;99.90
7445;DHT22;3764;48.126;11.594;2023-04-29T05:59:36;12.20;99.90
7445;DHT22;3764;48.126;11.594;2023-04-29T06:02:03;12.30;99.90
7445;DHT22;3764;48.126;11.594;2023-04-29T06:04:30;12.50;99.90
7445;DHT22;3764;48.126;11.594;2023-04-29T06:06:57;12.50;99.90
7445;DHT22;3764;48.126;11.594;2023-04-29T06:09:24;12.60;99.90
7445;DHT22;3764;48.126;11.594;2023-04-29T06:11:52;12.70;99.90
7445;DHT22;3764;48.126;11.594;2023-04-29T06:14:19;12.80;99.90
7445;DHT22;3764;48.126;11.594;2023-04-29T06:16:47;12.80;99.90
7445;DHT22;3764;48.126;11.594;2023-04-29T06:19:14;12.90;99.90
7445;DHT22;3764;48.126;11.594;2023-04-29T06:21:41;13.00;99.90
7445;DHT22;3764;48.126;11.594;2023-04-29T06:24:09;13.00;99.90
7445;DHT22;3764;48.126;11.594;2023-04-29T06:26:36;13.10;99.90
7445;DHT22;3764;48.126;11.594;2023-04-29T06:29:03;13.10;99.90
7445;DHT22;3764;48.126;11.594;2023-04-29T06:31:30;13.20;99.90
7445;DHT22;3764;48.126;11.594;2023-04-29T06:33:59;13.20;99.90
7445;DHT22;3764;48.126;11.594;2023-04-29T06:36:26;13.20;99.90
7445;DHT22;3764;48.126;11.594;2023-04-29T06:38:53;13.30;99.90
7445;DHT22;3764;48.126;11.594;2023-04-29T06:41:21;13.30;99.90
7445;DHT22;3764;48.126;11.594;2023-04-29T06:43:48;13.30;99.90
7445;DHT22;3764;48.126;11.594;2023-04-29T06:46:15;13.40;99.90
7445;DHT22;3764;48.126;11.594;2023-04-29T06:48:42;13.40;99.90
7445;DHT22;3764;48.126;11.594;2023-04-29T06:51:11;13.40;99.90
7445;DHT22;3764;48.126;11.594;2023-04-29T06:53:38;13.40;99.90
7445;DHT22;3764;48.126;11.594;2023-04-29T06:56:06;13.40;99.90
7445;DHT22;3764;48.126;11.594;2023-04-29T06:58:33;13.50;99.90
7445;DHT22;3764;48.126;11.594;2023-04-29T07:01:00;13.50;99.90
7445;DHT22;3764;48.126;11.594;2023-04-29T07:03:32;13.50;99.90
7445;DHT22;3764;48.126;11.594;2023-04-29T07:05:59;13.50;99.90
7445;DHT22;3764;48.126;11.594;2023-04-29T07:08:28;13.40;99.90
7445;DHT22;3764;48.126;11.594;2023-04-29T07:10:55;13.50;99.90
7445;DHT22;3764;48.126;11.594;2023-04-29T07:13:22;13.50;99.90
7445;DHT22;3764;48.126;11.594;2023-04-29T07:15:49;13.50;99.90
7445;DHT22;3764;48.126;11.594;2023-04-29T07:18:17;13.50;99.90
7445;DHT22;3764;48.126;11.594;2023-04-29T07:20:44;13.50;99.90
7445;DHT22;3764;48.126;11.594;2023-04-29T07:23:12;13.50;99.90
7445;DHT22;3764;48.126;11.594;2023-04-29T07:25:40;13.60;99.90
7445;DHT22;3764;48.126;11.594;2023-04-29T07:28:08;13.50;99.90
7445;DHT22;3764;48.126;11.594;2023-04-29T07:30:35;13.50;99.90
7445;DHT22;3764;48.126;11.594;2023-04-29T07:33:02;13.50;99.90
7445;DHT22;3764;48.126;11.594;2023-04-29T07:35:30;13.50;99.90
7445;DHT22;3764;48.126;11.594;2023-04-29T07:37:57;13.60;99.90
7445;DHT22;3764;48.126;11.594;2023-04-29T07:40:25;13.60;99.90
7445;DHT22;3764;48.126;11.594;2023-04-29T07:42:53;13.70;99.90
7445;DHT22;3764;48.126;11.594;2023-04-29T07:45:20;13.70;99.90
7445;DHT22;3764;48.126;11.594;2023-04-29T07:47:47;13.80;99.90
7445;DHT22;3764;48.126;11.594;2023-04-29T07:50:14;13.80;99.90
7445;DHT22;3764;48.126;11.594;2023-04-29T07:52:42;13.90;99.90
7445;DHT22;3764;48.126;11.594;2023-04-29T07:57:44;13.90;99.90
7445;DHT22;3764;48.126;11.594;2023-04-29T08:00:13;13.90;99.90
7445;DHT22;3764;48.126;11.594;2023-04-29T08:02:41;14.00;99.90
7445;DHT22;3764;48.126;11.594;2023-04-29T08:05:09;14.10;99.90
7445;DHT22;3764;48.126;11.594;2023-04-29T08:07:36;14.10;99.90
7445;DHT22;3764;48.126;11.594;2023-04-29T08:10:04;14.20;99.90
7445;DHT22;3764;48.126;11.594;2023-04-29T08:12:31;14.20;99.90
7445;DHT22;3764;48.126;11.594;2023-04-29T08:14:58;14.30;99.90
7445;DHT22;3764;48.126;11.594;2023-04-29T08:17:28;14.40;99.90
7445;DHT22;3764;48.126;11.594;2023-04-29T08:19:55;14.40;99.90
7445;DHT22;3764;48.126;11.594;2023-04-29T08:22:22;14.40;99.90
7445;DHT22;3764;48.126;11.594;2023-04-29T08:24:50;14.40;99.90
7445;DHT22;3764;48.126;11.594;2023-04-29T08:27:17;14.50;99.90
7445;DHT22;3764;48.126;11.594;2023-04-29T08:29:45;14.50;99.90
7445;DHT22;3764;48.126;11.594;2023-04-29T08:32:12;14.40;99.90
7445;DHT22;3764;48.126;11.594;2023-04-29T08:34:50;14.40;99.90
7445;DHT22;3764;48.126;11.594;2023-04-29T08:37:34;14.50;99.90
7445;DHT22;3764;48.126;11.594;2023-04-29T08:40:05;14.50;99.90
7445;DHT22;3764;48.126;11.594;2023-04-29T08:42:38;14.60;99.90
7445;DHT22;3764;48.126;11.594;2023-04-29T08:45:08;14.50;99.90
7445;DHT22;3764;48.126;11.594;2023-04-29T08:47:36;14.60;99.90
7445;DHT22;3764;48.126;11.594;2023-04-29T08:50:07;14.50;99.90
7445;DHT22;3764;48.126;11.594;2023-04-29T08:52:35;14.60;99.90
7445;DHT22;3764;48.126;11.594;2023-04-29T08:55:06;14.60;99.90
7445;DHT22;3764;48.126;11.594;2023-04-29T08:57:35;14.70;99.90
7445;DHT22;3764;48.126;11.594;2023-04-29T09:00:07;14.70;99.90
7445;DHT22;3764;48.126;11.594;2023-04-29T09:02:40;14.80;99.90
7445;DHT22;3764;48.126;11.594;2023-04-29T09:05:15;14.90;99.90
7445;DHT22;3764;48.126;11.594;2023-04-29T09:07:43;15.00;99.90
7445;DHT22;3764;48.126;11.594;2023-04-29T09:10:11;15.10;99.90
7445;DHT22;3764;48.126;11.594;2023-04-29T09:12:39;15.20;99.90
7445;DHT22;3764;48.126;11.594;2023-04-29T09:15:07;15.30;99.90
7445;DHT22;3764;48.126;11.594;2023-04-29T09:17:39;15.40;99.90
7445;DHT22;3764;48.126;11.594;2023-04-29T09:20:28;15.50;99.90
7445;DHT22;3764;48.126;11.594;2023-04-29T09:22:56;15.50;99.90
7445;DHT22;3764;48.126;11.594;2023-04-29T09:25:24;15.50;99.90
7445;DHT22;3764;48.126;11.594;2023-04-29T09:27:52;15.50;99.90
7445;DHT22;3764;48.126;11.594;2023-04-29T09:30:19;15.50;99.90
7445;DHT22;3764;48.126;11.594;2023-04-29T09:33:03;15.60;99.90
7445;DHT22;3764;48.126;11.594;2023-04-29T09:35:32;15.60;99.90
7445;DHT22;3764;48.126;11.594;2023-04-29T09:38:11;15.60;99.90
7445;DHT22;3764;48.126;11.594;2023-04-29T09:40:40;15.60;99.90
7445;DHT22;3764;48.126;11.594;2023-04-29T09:43:12;15.60;99.90
7445;DHT22;3764;48.126;11.594;2023-04-29T09:45:41;15.70;99.90
7445;DHT22;3764;48.126;11.594;2023-04-29T09:48:09;15.70;99.90
7445;DHT22;3764;48.126;11.594;2023-04-29T09:50:39;15.70;99.90
7445;DHT22;3764;48.126;11.594;2023-04-29T09:53:09;15.60;99.90
7445;DHT22;3764;48.126;11.594;2023-04-29T09:55:37;15.70;99.90
7445;DHT22;3764;48.126;11.594;2023-04-29T09:58:27;15.80;99.90
7445;DHT22;3764;48.126;11.594;2023-04-29T10:00:58;15.80;99.90
7445;DHT22;3764;48.126;11.594;2023-04-29T10:03:32;15.90;99.90
7445;DHT22;3764;48.126;11.594;2023-04-29T10:06:02;15.90;99.90
7445;DHT22;3764;48.126;11.594;2023-04-29T10:08:30;16.00;99.90
7445;DHT22;3764;48.126;11.594;2023-04-29T10:10:59;16.10;99.90
7445;DHT22;3764;48.126;11.594;2023-04-29T10:13:27;16.30;99.90
7445;DHT22;3764;48.126;11.594;2023-04-29T10:16:00;16.40;99.90
7445;DHT22;3764;48.126;11.594;2023-04-29T10:18:34;16.60;99.90
7445;DHT22;3764;48.126;11.594;2023-04-29T10:21:06;16.70;99.90
7445;DHT22;3764;48.126;11.594;2023-04-29T10:23:33;16.80;99.90
7445;DHT22;3764;48.126;11.594;2023-04-29T10:26:02;16.80;99.90
7445;DHT22;3764;48.126;11.594;2023-04-29T10:28:30;16.70;99.90
7445;DHT22;3764;48.126;11.594;2023-04-29T10:31:00;16.50;99.90
7445;DHT22;3764;48.126;11.594;2023-04-29T10:33:30;16.40;99.90
7445;DHT22;3764;48.126;11.594;2023-04-29T10:36:03;16.30;99.90
7445;DHT22;3764;48.126;11.594;2023-04-29T10:38:35;16.20;99.90
7445;DHT22;3764;48.126;11.594;2023-04-29T10:41:09;16.20;99.90
7445;DHT22;3764;48.126;11.594;2023-04-29T10:43:40;16.10;99.90
7445;DHT22;3764;48.126;11.594;2023-04-29T10:46:18;16.00;99.90
7445;DHT22;3764;48.126;11.594;2023-04-29T10:48:45;16.00;99.90
7445;DHT22;3764;48.126;11.594;2023-04-29T10:51:27;16.10;99.90
7445;DHT22;3764;48.126;11.594;2023-04-29T10:54:01;16.20;99.90
7445;DHT22;3764;48.126;11.594;2023-04-29T10:56:36;16.30;99.90
7445;DHT22;3764;48.126;11.594;2023-04-29T10:59:03;16.60;99.90
7445;DHT22;3764;48.126;11.594;2023-04-29T11:01:41;16.90;99.90
7445;DHT22;3764;48.126;11.594;2023-04-29T11:04:08;17.20;99.90
7445;DHT22;3764;48.126;11.594;2023-04-29T11:06:46;17.30;99.90
7445;DHT22;3764;48.126;11.594;2023-04-29T11:09:23;17.30;99.90
7445;DHT22;3764;48.126;11.594;2023-04-29T11:11:58;17.20;99.90
7445;DHT22;3764;48.126;11.594;2023-04-29T11:14:37;17.20;99.90
7445;DHT22;3764;48.126;11.594;2023-04-29T11:17:08;17.10;99.90
7445;DHT22;3764;48.126;11.594;2023-04-29T11:19:40;17.10;99.90
7445;DHT22;3764;48.126;11.594;2023-04-29T11:22:23;17.10;99.90
7445;DHT22;3764;48.126;11.594;2023-04-29T11:24:52;17.30;99.90
7445;DHT22;3764;48.126;11.594;2023-04-29T11:27:21;17.50;99.90
7445;DHT22;3764;48.126;11.594;2023-04-29T11:29:51;18.10;99.90
7445;DHT22;3764;48.126;11.594;2023-04-29T11:32:20;18.40;99.90
7445;DHT22;3764;48.126;11.594;2023-04-29T11:34:48;18.30;99.90
7445;DHT22;3764;48.126;11.594;2023-04-29T11:37:21;18.10;99.90
7445;DHT22;3764;48.126;11.594;2023-04-29T11:39:49;18.00;99.90
7445;DHT22;3764;48.126;11.594;2023-04-29T11:42:20;17.90;99.90
7445;DHT22;3764;48.126;11.594;2023-04-29T11:44:50;17.80;99.90
7445;DHT22;3764;48.126;11.594;2023-04-29T11:47:19;17.60;99.90
7445;DHT22;3764;48.126;11.594;2023-04-29T11:49:47;17.50;99.90
7445;DHT22;3764;48.126;11.594;2023-04-29T11:52:14;17.40;99.90
7445;DHT22;3764;48.126;11.594;2023-04-29T11:54:43;17.40;99.90
7445;DHT22;3764;48.126;11.594;2023-04-29T11:57:11;17.50;99.90
7445;DHT22;3764;48.126;11.594;2023-04-29T11:59:38;17.80;99.90
7445;DHT22;3764;48.126;11.594;2023-04-29T12:02:11;17.80;99.90
7445;DHT22;3764;48.126;11.594;2023-04-29T12:04:44;18.00;99.90
7445;DHT22;3764;48.126;11.594;2023-04-29T12:07:13;18.10;99.90
7445;DHT22;3764;48.126;11.594;2023-04-29T12:09:43;18.20;99.90
7445;DHT22;3764;48.126;11.594;2023-04-29T12:12:12;18.30;99.90
7445;DHT22;3764;48.126;11.594;2023-04-29T12:14:40;18.40;99.90
7445;DHT22;3764;48.126;11.594;2023-04-29T12:17:08;18.40;99.90
7445;DHT22;3764;48.126;11.594;2023-04-29T12:19:35;18.40;99.90
7445;DHT22;3764;48.126;11.594;2023-04-29T12:22:04;18.40;99.90
7445;DHT22;3764;48.126;11.594;2023-04-29T12:24:33;18.40;99.90
7445;DHT22;3764;48.126;11.594;2023-04-29T12:27:03;18.30;99.90
7445;DHT22;3764;48.126;11.594;2023-04-29T12:29:30;18.30;99.90
7445;DHT22;3764;48.126;11.594;2023-04-29T12:31:58;18.40;99.90
7445;DHT22;3764;48.126;11.594;2023-04-29T12:34:25;18.40;99.90
7445;DHT22;3764;48.126;11.594;2023-04-29T12:36:54;18.40;99.90
7445;DHT22;3764;48.126;11.594;2023-04-29T12:39:22;18.30;99.90
7445;DHT22;3764;48.126;11.594;2023-04-29T12:41:54;18.20;99.90
7445;DHT22;3764;48.126;11.594;2023-04-29T12:44:24;18.20;99.90
7445;DHT22;3764;48.126;11.594;2023-04-29T12:46:51;18.30;99.90
7445;DHT22;3764;48.126;11.594;2023-04-29T12:49:18;18.30;99.90
7445;DHT22;3764;48.126;11.594;2023-04-29T12:51:46;18.40;99.90
7445;DHT22;3764;48.126;11.594;2023-04-29T12:54:13;18.40;99.90
7445;DHT22;3764;48.126;11.594;2023-04-29T12:56:40;18.40;99.90
7445;DHT22;3764;48.126;11.594;2023-04-29T12:59:08;18.40;99.90
7445;DHT22;3764;48.126;11.594;2023-04-29T13:01:38;18.50;99.90
7445;DHT22;3764;48.126;11.594;2023-04-29T13:04:05;18.50;99.90
7445;DHT22;3764;48.126;11.594;2023-04-29T13:06:34;18.60;99.90
7445;DHT22;3764;48.126;11.594;2023-04-29T13:09:05;18.50;99.90
7445;DHT22;3764;48.126;11.594;2023-04-29T13:11:32;18.50;99.90
7445;DHT22;3764;48.126;11.594;2023-04-29T13:13:59;18.60;99.90
7445;DHT22;3764;48.126;11.594;2023-04-29T13:16:26;18.60;99.90
7445;DHT22;3764;48.126;11.594;2023-04-29T13:18:54;18.70;99.90
7445;DHT22;3764;48.126;11.594;2023-04-29T13:21:21;18.80;99.90
7445;DHT22;3764;48.126;11.594;2023-04-29T13:23:49;18.90;99.90
7445;DHT22;3764;48.126;11.594;2023-04-29T13:26:16;19.00;99.90
7445;DHT22;3764;48.126;11.594;2023-04-29T13:28:44;19.10;99.90
7445;DHT22;3764;48.126;11.594;2023-04-29T13:31:11;19.10;99.90
7445;DHT22;3764;48.126;11.594;2023-04-29T13:33:38;19.10;99.90
7445;DHT22;3764;48.126;11.594;2023-04-29T13:36:07;19.00;99.90
7445;DHT22;3764;48.126;11.594;2023-04-29T13:38:34;19.00;99.90
7445;DHT22;3764;48.126;11.594;2023-04-29T13:41:01;19.00;99.90
7445;DHT22;3764;48.126;11.594;2023-04-29T13:43:28;19.00;99.90
7445;DHT22;3764;48.126;11.594;2023-04-29T13:45:55;19.00;99.90
7445;DHT22;3764;48.126;11.594;2023-04-29T13:48:23;19.10;99.90
7445;DHT22;3764;48.126;11.594;2023-04-29T13:50:53;19.10;99.90
7445;DHT22;3764;48.126;11.594;2023-04-29T13:53:22;19.20;99.90
7445;DHT22;3764;48.126;11.594;2023-04-29T13:55:49;19.30;99.90
7445;DHT22;3764;48.126;11.594;2023-04-29T13:58:16;19.40;99.90
7445;DHT22;3764;48.126;11.594;2023-04-29T14:00:43;19.60;99.90
7445;DHT22;3764;48.126;11.594;2023-04-29T14:03:10;19.70;99.90
7445;DHT22;3764;48.126;11.594;2023-04-29T14:05:37;19.70;99.90
7445;DHT22;3764;48.126;11.594;2023-04-29T14:08:04;19.60;99.90
7445;DHT22;3764;48.126;11.594;2023-04-29T14:10:34;19.60;99.90
7445;DHT22;3764;48.126;11.594;2023-04-29T14:13:01;19.70;99.90
7445;DHT22;3764;48.126;11.594;2023-04-29T14:15:28;19.60;99.90
7445;DHT22;3764;48.126;11.594;2023-04-29T14:17:55;19.60;99.90
7445;DHT22;3764;48.126;11.594;2023-04-29T14:20:22;19.60;99.90
7445;DHT22;3764;48.126;11.594;2023-04-29T14:22:49;19.60;99.90
7445;DHT22;3764;48.126;11.594;2023-04-29T14:25:17;19.60;99.90
7445;DHT22;3764;48.126;11.594;2023-04-29T14:27:46;19.70;99.90
7445;DHT22;3764;48.126;11.594;2023-04-29T14:30:13;19.70;99.90
7445;DHT22;3764;48.126;11.594;2023-04-29T14:32:41;19.70;99.90
7445;DHT22;3764;48.126;11.594;2023-04-29T14:35:08;19.70;99.90
7445;DHT22;3764;48.126;11.594;2023-04-29T14:37:35;19.70;99.90
7445;DHT22;3764;48.126;11.594;2023-04-29T14:40:03;19.60;99.90
7445;DHT22;3764;48.126;11.594;2023-04-29T14:42:31;19.50;99.90
7445;DHT22;3764;48.126;11.594;2023-04-29T14:44:59;19.30;99.90
7445;DHT22;3764;48.126;11.594;2023-04-29T14:47:26;19.20;99.90
7445;DHT22;3764;48.126;11.594;2023-04-29T14:49:53;19.00;99.90
7445;DHT22;3764;48.126;11.594;2023-04-29T14:52:21;19.10;99.90
7445;DHT22;3764;48.126;11.594;2023-04-29T14:54:48;19.00;99.90
7445;DHT22;3764;48.126;11.594;2023-04-29T14:57:15;19.10;99.90
7445;DHT22;3764;48.126;11.594;2023-04-29T14:59:42;19.00;99.90
7445;DHT22;3764;48.126;11.594;2023-04-29T15:02:10;18.80;99.90
7445;DHT22;3764;48.126;11.594;2023-04-29T15:04:37;18.80;99.90
7445;DHT22;3764;48.126;11.594;2023-04-29T15:07:10;18.70;99.90
7445;DHT22;3764;48.126;11.594;2023-04-29T15:09:37;18.60;99.90
7445;DHT22;3764;48.126;11.594;2023-04-29T15:12:04;18.70;99.90
7445;DHT22;3764;48.126;11.594;2023-04-29T15:14:31;18.70;99.90
7445;DHT22;3764;48.126;11.594;2023-04-29T15:16:59;18.80;99.90
7445;DHT22;3764;48.126;11.594;2023-04-29T15:19:27;18.80;99.90
7445;DHT22;3764;48.126;11.594;2023-04-29T15:21:55;19.00;99.90
7445;DHT22;3764;48.126;11.594;2023-04-29T15:24:21;19.00;99.90
7445;DHT22;3764;48.126;11.594;2023-04-29T15:26:49;19.00;99.90
7445;DHT22;3764;48.126;11.594;2023-04-29T15:29:17;19.00;99.90
7445;DHT22;3764;48.126;11.594;2023-04-29T15:31:44;18.80;99.90
7445;DHT22;3764;48.126;11.594;2023-04-29T15:34:11;18.60;99.90
7445;DHT22;3764;48.126;11.594;2023-04-29T15:36:41;18.60;99.90
7445;DHT22;3764;48.126;11.594;2023-04-29T15:39:08;18.40;99.90
7445;DHT22;3764;48.126;11.594;2023-04-29T15:41:36;18.30;99.90
7445;DHT22;3764;48.126;11.594;2023-04-29T15:44:04;18.30;99.90
7445;DHT22;3764;48.126;11.594;2023-04-29T15:46:31;18.30;99.90
7445;DHT22;3764;48.126;11.594;2023-04-29T15:48:58;18.40;99.90
7445;DHT22;3764;48.126;11.594;2023-04-29T15:51:25;18.40;99.90
7445;DHT22;3764;48.126;11.594;2023-04-29T15:53:54;18.40;99.90
7445;DHT22;3764;48.126;11.594;2023-04-29T15:56:21;18.40;99.90